createdAt,value
2018-01-12T00:01:12.452Z,2.15
2018-01-12T00:03:40.212Z,2.15
2018-01-12T00:06:07.842Z,2.15
2018-01-12T00:08:35.576Z,2.13
2018-01-12T00:11:03.208Z,2.12
2018-01-12T00:13:30.950Z,2.10
2018-01-12T00:15:58.682Z,2.09
2018-01-12T00:18:26.361Z,2.09
2018-01-12T00:20:54.066Z,2.08
2018-01-12T00:23:21.805Z,2.06
2018-01-12T00:25:49.436Z,2.04
2018-01-12T00:28:17.175Z,2.02
2018-01-12T00:30:44.871Z,2.00
2018-01-12T00:33:12.654Z,1.98
2018-01-12T00:35:40.420Z,1.93
2018-01-12T00:38:08.267Z,1.91
2018-01-12T00:40:36.104Z,1.89
2018-01-12T00:43:03.927Z,1.89
2018-01-12T00:45:31.604Z,1.91
2018-01-12T00:47:59.399Z,1.92
2018-01-12T00:50:27.238Z,1.91
2018-01-12T00:52:54.936Z,1.91
2018-01-12T00:55:22.720Z,1.93
2018-01-12T00:57:50.532Z,1.95
2018-01-12T01:00:18.244Z,1.96
2018-01-12T01:02:46.076Z,2.00
2018-01-12T01:05:13.839Z,1.99
2018-01-12T01:07:41.595Z,2.02
2018-01-12T01:10:10.393Z,2.01
2018-01-12T01:12:38.196Z,1.99
2018-01-12T01:15:06.019Z,2.02
2018-01-12T01:17:33.800Z,2.02
2018-01-12T01:20:01.623Z,2.01
2018-01-12T01:22:29.443Z,2.00
2018-01-12T01:24:57.297Z,1.99
2018-01-12T01:27:24.918Z,1.98
2018-01-12T01:29:52.730Z,1.99
2018-01-12T01:32:20.468Z,2.03
2018-01-12T01:34:48.293Z,2.01
2018-01-12T01:37:16.037Z,2.03
2018-01-12T01:39:43.895Z,2.00
2018-01-12T01:42:11.614Z,2.01
2018-01-12T01:44:39.485Z,2.02
2018-01-12T01:47:07.177Z,1.99
2018-01-12T01:49:35.018Z,2.00
2018-01-12T01:52:02.744Z,1.98
2018-01-12T01:54:30.571Z,1.98
2018-01-12T01:56:58.206Z,1.98
2018-01-12T01:59:26.085Z,1.99
2018-01-12T02:01:53.893Z,1.98
2018-01-12T02:04:21.716Z,1.94
2018-01-12T02:06:49.466Z,1.97
2018-01-12T02:09:17.157Z,1.95
2018-01-12T02:11:44.935Z,1.98
2018-01-12T02:14:12.763Z,1.96
2018-01-12T02:16:40.538Z,1.96
2018-01-12T02:19:08.329Z,1.96
2018-01-12T02:21:35.968Z,1.99
2018-01-12T02:24:03.806Z,2.01
2018-01-12T02:26:31.543Z,2.05
2018-01-12T02:29:00.179Z,2.03
2018-01-12T02:31:27.946Z,2.00
2018-01-12T02:33:55.751Z,1.96
2018-01-12T02:36:23.484Z,2.01
2018-01-12T02:38:51.340Z,2.04
2018-01-12T02:41:19.070Z,2.03
2018-01-12T02:43:46.899Z,2.04
2018-01-12T02:46:14.557Z,2.03
2018-01-12T02:48:42.204Z,2.02
2018-01-12T02:51:10.059Z,2.02
2018-01-12T02:53:37.688Z,2.00
2018-01-12T02:56:05.517Z,2.03
2018-01-12T02:58:33.246Z,2.04
2018-01-12T03:01:01.076Z,2.03
2018-01-12T03:03:28.827Z,2.07
2018-01-12T03:05:56.649Z,2.03
2018-01-12T03:08:24.393Z,2.05
2018-01-12T03:10:52.095Z,2.09
2018-01-12T03:13:19.732Z,2.09
2018-01-12T03:15:47.584Z,2.03
2018-01-12T03:18:15.222Z,1.99
2018-01-12T03:20:43.058Z,2.02
2018-01-12T03:23:10.793Z,2.05
2018-01-12T03:25:38.468Z,2.02
2018-01-12T03:28:06.251Z,2.03
2018-01-12T03:30:34.088Z,2.03
2018-01-12T03:33:01.731Z,2.00
2018-01-12T03:35:29.559Z,1.97
2018-01-12T03:37:57.283Z,1.97
2018-01-12T03:40:24.961Z,1.99
2018-01-12T03:42:52.758Z,1.97
2018-01-12T03:45:20.608Z,1.95
2018-01-12T03:47:48.340Z,1.96
2018-01-12T03:50:16.050Z,1.91
2018-01-12T03:52:43.689Z,1.90
2018-01-12T03:55:11.542Z,1.95
2018-01-12T03:57:39.172Z,1.92
2018-01-12T04:00:07.004Z,1.92
2018-01-12T04:02:34.656Z,1.90
2018-01-12T04:05:02.474Z,1.89
2018-01-12T04:07:30.099Z,1.91
2018-01-12T04:09:57.934Z,1.92
2018-01-12T04:12:25.677Z,1.93
2018-01-12T04:14:53.364Z,1.93
2018-01-12T04:17:21.189Z,1.92
2018-01-12T04:19:48.967Z,1.92
2018-01-12T04:22:16.600Z,1.93
2018-01-12T04:24:44.459Z,1.93
2018-01-12T04:27:12.091Z,1.89
2018-01-12T04:29:39.921Z,1.94
2018-01-12T04:32:07.606Z,1.90
2018-01-12T04:34:35.302Z,1.90
2018-01-12T04:37:03.148Z,1.95
2018-01-12T04:39:30.896Z,1.95
2018-01-12T04:41:58.722Z,1.94
2018-01-12T04:44:26.459Z,1.92
2018-01-12T04:46:54.159Z,1.87
2018-01-12T04:49:21.928Z,1.89
2018-01-12T04:51:49.759Z,1.92
2018-01-12T04:54:17.506Z,1.92
2018-01-12T04:56:45.338Z,1.98
2018-01-12T04:59:13.080Z,1.99
2018-01-12T05:01:40.909Z,1.96
2018-01-12T05:04:08.544Z,1.97
2018-01-12T05:06:36.243Z,1.97
2018-01-12T05:09:04.077Z,1.93
2018-01-12T05:11:31.940Z,2.00
2018-01-12T05:13:59.586Z,1.95
2018-01-12T05:16:27.384Z,1.94
2018-01-12T05:18:55.169Z,1.96
2018-01-12T05:21:22.863Z,1.98
2018-01-12T05:23:50.610Z,1.98
2018-01-12T05:26:18.441Z,1.99
2018-01-12T05:28:46.187Z,1.97
2018-01-12T05:31:14.013Z,1.98
2018-01-12T05:33:41.677Z,1.97
2018-01-12T05:36:09.487Z,2.00
2018-01-12T05:38:37.159Z,1.99
2018-01-12T05:41:04.841Z,2.01
2018-01-12T05:43:32.604Z,2.02
2018-01-12T05:46:00.299Z,2.03
2018-01-12T05:48:28.078Z,2.04
2018-01-12T05:50:55.885Z,1.99
2018-01-12T05:53:23.642Z,2.03
2018-01-12T05:55:51.328Z,2.01
2018-01-12T05:58:19.106Z,1.98
2018-01-12T06:03:57.613Z,2.03
2018-01-12T06:06:25.451Z,2.06
2018-01-12T06:08:53.181Z,2.07
2018-01-12T06:11:21.032Z,2.03
2018-01-12T06:13:48.771Z,2.01
2018-01-12T06:16:16.622Z,1.98
2018-01-12T06:18:44.416Z,2.04
2018-01-12T06:21:12.275Z,1.98
2018-01-12T06:23:39.999Z,2.00
2018-01-12T06:26:07.832Z,1.99
2018-01-12T06:28:35.566Z,2.00
2018-01-12T06:31:03.388Z,2.03
2018-01-12T06:33:31.131Z,2.02
2018-01-12T06:35:58.956Z,2.05
2018-01-12T06:38:26.597Z,2.06
2018-01-12T06:40:54.401Z,2.02
2018-01-12T06:43:22.075Z,2.01
2018-01-12T06:45:49.866Z,2.04
2018-01-12T06:48:17.568Z,1.99
2018-01-12T06:50:45.192Z,2.00
2018-01-12T06:53:12.961Z,2.01
2018-01-12T06:55:40.693Z,1.96
2018-01-12T06:58:08.517Z,1.95
2018-01-12T07:00:36.217Z,1.98
2018-01-12T07:03:03.987Z,1.95
2018-01-12T07:05:31.616Z,1.97
2018-01-12T07:07:59.303Z,1.95
2018-01-12T07:10:27.085Z,1.96
2018-01-12T07:12:54.776Z,1.96
2018-01-12T07:15:22.576Z,2.00
2018-01-12T07:17:50.460Z,1.94
2018-01-12T07:20:29.873Z,2.00
2018-01-12T07:23:09.426Z,2.01
2018-01-12T07:25:37.068Z,1.99
2018-01-12T07:28:04.879Z,2.00
2018-01-12T07:30:32.505Z,2.02
2018-01-12T07:33:00.305Z,2.04
2018-01-12T07:35:28.051Z,2.03
2018-01-12T07:37:55.743Z,1.99
2018-01-12T07:40:23.536Z,1.95
2018-01-12T07:42:51.340Z,2.00
2018-01-12T07:45:19.087Z,1.93
2018-01-12T07:47:46.924Z,1.99
2018-01-12T07:50:14.684Z,1.98
2018-01-12T07:52:47.982Z,1.97
2018-01-12T07:55:15.770Z,1.97
2018-01-12T07:57:43.603Z,2.03
2018-01-12T08:00:11.438Z,1.98
2018-01-12T08:02:44.855Z,1.95
2018-01-12T08:05:12.656Z,1.94
2018-01-12T08:07:40.365Z,1.93
2018-01-12T08:10:09.125Z,1.97
2018-01-12T08:12:37.010Z,2.02
2018-01-12T08:15:04.656Z,1.97
2018-01-12T08:17:32.359Z,1.98
2018-01-12T08:20:00.019Z,1.96
2018-01-12T08:22:27.708Z,1.93
2018-01-12T08:24:55.516Z,1.97
2018-01-12T08:27:23.346Z,1.94
2018-01-12T08:29:50.983Z,1.93
2018-01-12T08:32:18.670Z,1.96
2018-01-12T08:34:46.296Z,2.00
2018-01-12T08:37:14.494Z,2.00
2018-01-12T08:39:42.129Z,2.03
2018-01-12T08:42:09.953Z,2.00
2018-01-12T08:44:37.824Z,1.97
2018-01-12T08:47:05.578Z,1.99
2018-01-12T08:49:33.285Z,2.04
2018-01-12T08:52:00.933Z,2.12
2018-01-12T08:54:28.609Z,2.02
2018-01-12T08:56:56.263Z,1.99
2018-01-12T08:59:23.968Z,2.00
2018-01-12T09:01:51.593Z,2.00
2018-01-12T09:04:19.284Z,2.01
2018-01-12T09:06:46.913Z,2.00
2018-01-12T09:09:14.610Z,2.03
2018-01-12T09:11:42.251Z,2.00
2018-01-12T09:17:12.925Z,1.98
2018-01-12T09:19:48.622Z,2.03
2018-01-12T09:22:28.243Z,2.02
2018-01-12T09:24:55.927Z,2.04
2018-01-12T09:27:23.743Z,2.06
2018-01-12T09:29:51.566Z,2.10
2018-01-12T09:32:19.352Z,2.09
2018-01-12T09:35:05.984Z,2.08
2018-01-12T09:37:40.542Z,2.04
2018-01-12T09:40:22.092Z,2.05
2018-01-12T09:42:49.764Z,2.04
2018-01-12T09:45:17.471Z,2.07
2018-01-12T09:50:50.378Z,2.05
2018-01-12T09:53:18.129Z,2.07
2018-01-12T09:55:45.820Z,2.13
2018-01-12T09:58:13.561Z,2.09
2018-01-12T10:01:00.275Z,2.08
2018-01-12T10:03:27.969Z,2.07
2018-01-12T10:05:55.684Z,2.07
2018-01-12T10:08:26.143Z,2.04
2018-01-12T10:10:53.787Z,2.09
2018-01-12T10:13:21.538Z,2.08
2018-01-12T10:15:49.173Z,2.06
2018-01-12T10:18:28.850Z,2.07
2018-01-12T10:20:56.619Z,2.08
2018-01-12T10:23:24.374Z,2.11
2018-01-12T10:25:52.069Z,2.10
2018-01-12T10:28:19.842Z,2.08
2018-01-12T10:30:58.523Z,2.13
2018-01-12T10:33:58.916Z,2.13
2018-01-12T10:36:36.667Z,2.08
2018-01-12T10:39:04.460Z,2.07
2018-01-12T10:44:35.486Z,2.09
2018-01-12T10:47:16.683Z,2.08
2018-01-12T10:50:11.205Z,2.07
2018-01-12T10:52:54.684Z,2.11
2018-01-12T10:55:22.499Z,2.07
2018-01-12T10:57:50.238Z,2.07
2018-01-12T11:00:25.757Z,2.10
2018-01-12T11:02:53.473Z,2.14
2018-01-12T11:05:21.251Z,2.13
2018-01-12T11:07:49.068Z,2.14
2018-01-12T11:10:16.832Z,2.11
2018-01-12T11:12:44.541Z,2.14
2018-01-12T11:15:12.315Z,2.15
2018-01-12T11:17:40.102Z,2.10
2018-01-12T11:20:07.858Z,2.09
2018-01-12T11:22:35.571Z,2.07
2018-01-12T11:25:03.340Z,2.08
2018-01-12T11:27:31.043Z,2.14
2018-01-12T11:29:58.820Z,2.18
2018-01-12T11:32:26.632Z,2.13
2018-01-12T11:34:54.327Z,2.15
2018-01-12T11:37:22.043Z,2.18
2018-01-12T11:39:49.787Z,2.19
2018-01-12T11:42:17.480Z,2.14
2018-01-12T11:44:45.192Z,2.10
2018-01-12T11:47:12.891Z,2.10
2018-01-12T11:49:40.653Z,2.10
2018-01-12T11:52:08.373Z,2.12
2018-01-12T11:54:36.117Z,2.10
2018-01-12T11:57:03.830Z,2.10
2018-01-12T11:59:31.593Z,2.04
2018-01-12T12:01:59.354Z,2.06
2018-01-12T12:04:27.106Z,2.05
2018-01-12T12:06:54.739Z,2.08
2018-01-12T12:09:22.421Z,2.10
2018-01-12T12:11:50.129Z,2.11
2018-01-12T12:14:17.908Z,2.12
2018-01-12T12:16:45.680Z,2.16
2018-01-12T12:19:13.574Z,2.09
2018-01-12T12:21:41.243Z,2.17
2018-01-12T12:24:08.930Z,2.11
2018-01-12T12:26:36.715Z,2.10
2018-01-12T12:29:04.427Z,2.07
2018-01-12T12:31:32.190Z,2.04
2018-01-12T12:33:59.908Z,2.07
2018-01-12T12:36:27.599Z,2.06
2018-01-12T12:38:55.238Z,2.04
2018-01-12T12:41:24.966Z,2.03
2018-01-12T12:43:53.542Z,2.03
2018-01-12T12:46:21.238Z,2.08
2018-01-12T12:48:48.869Z,2.15
2018-01-12T12:51:16.560Z,2.15
2018-01-12T12:53:44.198Z,2.19
2018-01-12T12:56:11.900Z,2.18
2018-01-12T12:58:39.528Z,2.21
2018-01-12T13:01:07.224Z,2.25
2018-01-12T13:03:34.861Z,2.23
2018-01-12T13:06:02.547Z,2.16
2018-01-12T13:08:30.177Z,2.16
2018-01-12T13:10:57.850Z,2.13
2018-01-12T13:13:25.485Z,2.12
2018-01-12T13:15:53.203Z,2.08
2018-01-12T13:18:20.961Z,2.06
2018-01-12T13:20:48.707Z,2.08
2018-01-12T13:23:16.416Z,2.10
2018-01-12T13:25:44.157Z,2.13
2018-01-12T13:28:11.868Z,2.17
2018-01-12T13:30:39.540Z,2.13
2018-01-12T13:33:07.159Z,2.12
2018-01-12T13:35:34.918Z,2.08
2018-01-12T13:38:02.564Z,2.08
2018-01-12T13:40:30.310Z,2.05
2018-01-12T13:42:58.007Z,2.08
2018-01-12T13:45:25.749Z,2.12
2018-01-12T13:47:53.439Z,2.09
2018-01-12T13:50:21.322Z,2.09
2018-01-12T13:52:49.024Z,2.14
2018-01-12T13:55:16.715Z,2.10
2018-01-12T13:57:44.364Z,2.14
2018-01-12T14:00:12.049Z,2.12
2018-01-12T14:02:39.704Z,2.16
2018-01-12T14:05:07.340Z,2.11
2018-01-12T14:07:35.050Z,2.12
2018-01-12T14:10:02.685Z,2.12
2018-01-12T14:12:30.367Z,2.07
2018-01-12T14:14:57.996Z,2.05
2018-01-12T14:17:25.685Z,2.01
2018-01-12T14:19:53.327Z,2.04
2018-01-12T14:22:21.035Z,2.03
2018-01-12T14:24:48.672Z,2.08
2018-01-12T14:27:16.355Z,2.02
2018-01-12T14:29:44.046Z,2.06
2018-01-12T14:32:11.803Z,2.04
2018-01-12T14:34:39.522Z,2.04
2018-01-12T14:37:07.261Z,2.01
2018-01-12T14:39:34.973Z,1.99
2018-01-12T14:42:02.686Z,1.98
2018-01-12T14:44:31.395Z,1.97
2018-01-12T14:46:59.154Z,2.02
2018-01-12T14:49:26.886Z,2.02
2018-01-12T14:51:54.579Z,1.97
2018-01-12T14:54:22.287Z,1.98
2018-01-12T14:56:49.990Z,2.00
2018-01-12T14:59:17.642Z,1.99
2018-01-12T15:01:45.329Z,1.98
2018-01-12T15:04:13.056Z,2.00
2018-01-12T15:06:40.834Z,1.99
2018-01-12T15:09:08.554Z,2.00
2018-01-12T15:11:36.318Z,1.98
2018-01-12T15:14:04.005Z,1.98
2018-01-12T15:16:31.804Z,1.94
2018-01-12T15:18:59.558Z,1.92
2018-01-12T15:21:27.248Z,1.98
2018-01-12T15:23:55.200Z,1.93
2018-01-12T15:26:22.902Z,1.96
2018-01-12T15:28:50.582Z,1.89
2018-01-12T15:31:18.263Z,1.87
2018-01-12T15:33:45.972Z,1.91
2018-01-12T15:36:13.654Z,1.89
2018-01-12T15:38:41.431Z,1.87
2018-01-12T15:41:09.166Z,1.90
2018-01-12T15:43:36.865Z,1.90
2018-01-12T15:46:04.504Z,1.88
2018-01-12T15:48:32.204Z,1.85
2018-01-12T15:50:59.849Z,1.84
2018-01-12T15:53:27.594Z,1.85
2018-01-12T15:55:55.273Z,1.79
2018-01-12T15:58:22.972Z,1.84
2018-01-12T16:00:50.631Z,1.84
2018-01-12T16:03:18.332Z,1.85
2018-01-12T16:05:46.012Z,1.80
2018-01-12T16:08:13.719Z,1.82
2018-01-12T16:10:41.390Z,1.81
2018-01-12T16:13:09.109Z,1.86
2018-01-12T16:15:36.742Z,1.80
2018-01-12T16:18:04.564Z,1.80
2018-01-12T16:20:32.240Z,1.83
2018-01-12T16:22:59.928Z,1.91
2018-01-12T16:25:27.560Z,1.85
2018-01-12T16:27:55.239Z,1.83
2018-01-12T16:30:22.882Z,1.81
2018-01-12T16:32:50.585Z,1.79
2018-01-12T16:35:18.248Z,1.79
2018-01-12T16:37:45.919Z,1.76
2018-01-12T16:40:13.564Z,1.76
2018-01-12T16:42:41.240Z,1.75
2018-01-12T16:45:09.709Z,1.79
2018-01-12T16:47:37.467Z,1.75
2018-01-12T16:50:05.194Z,1.76
2018-01-12T16:52:32.945Z,1.71
2018-01-12T16:55:00.589Z,1.71
2018-01-12T16:57:28.490Z,1.68
2018-01-12T16:59:56.226Z,1.69
2018-01-12T17:02:23.963Z,1.67
2018-01-12T17:04:51.673Z,1.70
2018-01-12T17:07:19.370Z,1.68
2018-01-12T17:09:47.015Z,1.68
2018-01-12T17:12:14.761Z,1.71
2018-01-12T17:14:42.481Z,1.70
2018-01-12T17:17:10.270Z,1.71
2018-01-12T17:19:37.980Z,1.72
2018-01-12T17:22:05.725Z,1.70
2018-01-12T17:24:33.366Z,1.68
2018-01-12T17:27:01.008Z,1.71
2018-01-12T17:29:28.746Z,1.65
2018-01-12T17:31:56.411Z,1.66
2018-01-12T17:34:24.150Z,1.62
2018-01-12T17:36:51.780Z,1.59
2018-01-12T17:39:19.452Z,1.60
2018-01-12T17:41:47.134Z,1.60
2018-01-12T17:44:14.872Z,1.59
2018-01-12T17:46:42.501Z,1.53
2018-01-12T17:49:10.206Z,1.53
2018-01-12T17:51:37.908Z,1.49
2018-01-12T17:54:05.665Z,1.45
2018-01-12T17:56:33.372Z,1.43
2018-01-12T17:59:01.118Z,1.42
2018-01-12T18:01:28.809Z,1.41
2018-01-12T18:03:56.557Z,1.42
2018-01-12T18:06:24.223Z,1.44
2018-01-12T18:08:51.911Z,1.43
2018-01-12T18:11:19.534Z,1.40
2018-01-12T18:13:47.204Z,1.39
2018-01-12T18:16:14.836Z,1.36
2018-01-12T18:18:42.527Z,1.40
2018-01-12T18:21:10.161Z,1.41
2018-01-12T18:23:37.917Z,1.41
2018-01-12T18:26:05.626Z,1.36
2018-01-12T18:28:33.384Z,1.36
2018-01-12T18:31:01.102Z,1.35
2018-01-12T18:33:28.837Z,1.36
2018-01-12T18:35:56.541Z,1.40
2018-01-12T18:38:24.295Z,1.39
2018-01-12T18:40:51.984Z,1.40
2018-01-12T18:43:19.728Z,1.40
2018-01-12T18:45:48.394Z,1.38
2018-01-12T18:48:16.164Z,1.40
2018-01-12T18:50:43.802Z,1.43
2018-01-12T18:53:11.548Z,1.43
2018-01-12T18:55:39.244Z,1.46
2018-01-12T18:58:06.988Z,1.44
2018-01-12T19:00:34.683Z,1.42
2018-01-12T19:03:02.544Z,1.49
2018-01-12T19:05:30.201Z,1.48
2018-01-12T19:07:57.897Z,1.47
2018-01-12T19:10:25.662Z,1.46
2018-01-12T19:12:53.565Z,1.47
2018-01-12T19:15:21.335Z,1.50
2018-01-12T19:17:49.076Z,1.51
2018-01-12T19:20:16.889Z,1.51
2018-01-12T19:22:44.635Z,1.49
2018-01-12T19:25:12.375Z,1.48
2018-01-12T19:27:40.092Z,1.50
2018-01-12T19:30:07.832Z,1.51
2018-01-12T19:32:35.539Z,1.51
2018-01-12T19:35:03.332Z,1.48
2018-01-12T19:37:31.075Z,1.47
2018-01-12T19:39:58.830Z,1.49
2018-01-12T19:42:26.520Z,1.48
2018-01-12T19:44:54.343Z,1.52
2018-01-12T19:47:22.053Z,1.55
2018-01-12T19:49:49.803Z,1.54
2018-01-12T19:52:17.432Z,1.51
2018-01-12T19:54:45.189Z,1.53
2018-01-12T19:57:12.907Z,1.52
2018-01-12T19:59:40.669Z,1.52
2018-01-12T20:02:08.370Z,1.53
2018-01-12T20:04:36.110Z,1.54
2018-01-12T20:07:03.752Z,1.55
2018-01-12T20:09:31.517Z,1.51
2018-01-12T20:11:59.223Z,1.51
2018-01-12T20:14:27.001Z,1.52
2018-01-12T20:16:54.749Z,1.51
2018-01-12T20:19:22.553Z,1.50
2018-01-12T20:21:50.255Z,1.50
2018-01-12T20:24:18.019Z,1.49
2018-01-12T20:26:45.765Z,1.52
2018-01-12T20:29:13.443Z,1.55
2018-01-12T20:31:41.141Z,1.55
2018-01-12T20:34:08.970Z,1.54
2018-01-12T20:36:36.689Z,1.55
2018-01-12T20:39:04.474Z,1.56
2018-01-12T20:41:32.103Z,1.56
2018-01-12T20:44:00.098Z,1.55
2018-01-12T20:46:27.834Z,1.58
2018-01-12T20:48:55.520Z,1.60
2018-01-12T20:51:23.270Z,1.63
2018-01-12T20:53:50.996Z,1.57
2018-01-12T20:56:18.803Z,1.54
2018-01-12T20:58:46.502Z,1.57
2018-01-12T21:01:14.184Z,1.56
2018-01-12T21:03:41.896Z,1.57
2018-01-12T21:06:09.702Z,1.56
2018-01-12T21:08:37.414Z,1.59
2018-01-12T21:11:05.197Z,1.59
2018-01-12T21:13:32.939Z,1.55
2018-01-12T21:16:00.759Z,1.52
2018-01-12T21:18:28.552Z,1.55
2018-01-12T21:20:56.367Z,1.60
2018-01-12T21:23:24.130Z,1.60
2018-01-12T21:25:51.896Z,1.56
2018-01-12T21:28:19.640Z,1.56
2018-01-12T21:30:47.397Z,1.59
2018-01-12T21:33:15.123Z,1.54
2018-01-12T21:35:42.883Z,1.56
2018-01-12T21:38:10.591Z,1.59
2018-01-12T21:40:38.345Z,1.61
2018-01-12T21:43:05.971Z,1.60
2018-01-12T21:45:33.659Z,1.61
2018-01-12T21:48:08.307Z,1.61
2018-01-12T21:50:36.176Z,1.56
2018-01-12T21:53:03.918Z,1.58
2018-01-12T21:55:31.691Z,1.59
2018-01-12T21:57:59.344Z,1.57
2018-01-12T22:00:27.150Z,1.53
2018-01-12T22:02:54.778Z,1.54
2018-01-12T22:05:22.578Z,1.51
2018-01-12T22:07:50.246Z,1.51
2018-01-12T22:10:17.923Z,1.50
2018-01-12T22:12:45.604Z,1.47
2018-01-12T22:15:13.298Z,1.45
2018-01-12T22:17:40.917Z,1.39
2018-01-12T22:20:08.590Z,1.39
2018-01-12T22:22:36.238Z,1.39
2018-01-12T22:25:04.021Z,1.35
2018-01-12T22:27:31.699Z,1.32
2018-01-12T22:29:59.368Z,1.32
2018-01-12T22:32:27.060Z,1.30
2018-01-12T22:34:54.711Z,1.28
2018-01-12T22:37:22.383Z,1.27
2018-01-12T22:39:50.028Z,1.29
2018-01-12T22:42:17.728Z,1.29
2018-01-12T22:44:45.402Z,1.28
2018-01-12T22:47:13.076Z,1.30
2018-01-12T22:49:40.760Z,1.34
2018-01-12T22:52:08.447Z,1.32
2018-01-12T22:54:36.154Z,1.32
2018-01-12T22:57:03.829Z,1.32
2018-01-12T22:59:31.533Z,1.31
2018-01-12T23:01:59.263Z,1.30
2018-01-12T23:04:26.967Z,1.35
2018-01-12T23:06:54.737Z,1.36
2018-01-12T23:09:22.365Z,1.37
2018-01-12T23:11:50.102Z,1.36
2018-01-12T23:14:17.799Z,1.39
2018-01-12T23:16:45.482Z,1.38
2018-01-12T23:19:13.270Z,1.38
2018-01-12T23:21:41.003Z,1.40
2018-01-12T23:24:08.689Z,1.41
2018-01-12T23:26:36.475Z,1.41
2018-01-12T23:29:04.121Z,1.40
2018-01-12T23:31:31.873Z,1.41
2018-01-12T23:33:59.566Z,1.41
2018-01-12T23:36:27.309Z,1.41
2018-01-12T23:38:55.016Z,1.44
2018-01-12T23:41:22.759Z,1.46
2018-01-12T23:43:50.504Z,1.44
2018-01-12T23:46:18.253Z,1.50
2018-01-12T23:48:45.993Z,1.50
2018-01-12T23:51:13.785Z,1.49
2018-01-12T23:53:41.490Z,1.50
2018-01-12T23:56:09.174Z,1.50
2018-01-12T23:58:36.885Z,1.51
